Airport View

Enter AWOS ICAO identifier for current METAR.

ex. KFNL

KCQW 171205Z AUTO 02009G16KT 10SM OVC024 05/M00 A3006 RMK AO2

17 Nov 2019 12:06

Frequency: 124.825

Phone: 843-537-3301

Other Area AWOS: KBBP - KRCZ - KUDG - KAFP

TAF KFLO 171130Z 1712/1812 01015G25KT P6SM OVC025 FM171400 02012KT P6SM OVC015 FM171800 01012KT P6SM OVC050 FM180200 36005KT P6SM OVC050